createdAt,value
2018-10-12T00:00:00.818Z,992.29
2018-10-12T00:01:01.049Z,992.28
2018-10-12T00:02:01.271Z,992.30
2018-10-12T00:03:01.498Z,992.32
2018-10-12T00:04:01.725Z,992.31
2018-10-12T00:05:01.959Z,992.32
2018-10-12T00:06:02.182Z,992.32
2018-10-12T00:07:02.447Z,992.31
2018-10-12T00:08:02.636Z,992.36
2018-10-12T00:09:02.863Z,992.32
2018-10-12T00:10:03.088Z,992.37
2018-10-12T00:11:03.324Z,992.40
2018-10-12T00:12:03.548Z,992.40
2018-10-12T00:13:03.778Z,992.42
2018-10-12T00:14:03.997Z,992.45
2018-10-12T00:15:04.227Z,992.47
2018-10-12T00:16:04.452Z,992.50
2018-10-12T00:17:04.680Z,992.51
2018-10-12T00:18:04.911Z,992.52
2018-10-12T00:19:05.137Z,992.54
2018-10-12T00:20:05.363Z,992.57
2018-10-12T00:21:05.591Z,992.57
2018-10-12T00:22:05.806Z,992.65
2018-10-12T00:23:06.033Z,992.59
2018-10-12T00:24:06.260Z,992.55
2018-10-12T00:25:06.492Z,992.62
2018-10-12T00:26:06.715Z,992.60
2018-10-12T00:27:06.941Z,992.60
2018-10-12T00:28:07.171Z,992.62
2018-10-12T00:29:07.400Z,992.64
2018-10-12T00:30:07.629Z,992.64
2018-10-12T00:31:07.854Z,992.63
2018-10-12T00:32:08.073Z,992.61
2018-10-12T00:33:08.294Z,992.63
2018-10-12T00:34:08.519Z,992.64
2018-10-12T00:35:08.745Z,992.65
2018-10-12T00:36:08.972Z,992.66
2018-10-12T00:37:09.200Z,992.65
2018-10-12T00:38:09.467Z,992.69
2018-10-12T00:39:09.659Z,992.70
2018-10-12T00:40:09.888Z,992.75
2018-10-12T00:41:10.115Z,992.75
2018-10-12T00:42:10.341Z,992.76
2018-10-12T00:43:10.569Z,992.77
2018-10-12T00:44:10.796Z,992.75
2018-10-12T00:45:11.023Z,992.73
2018-10-12T00:46:11.253Z,992.70
2018-10-12T00:47:11.480Z,992.70
2018-10-12T00:48:11.713Z,992.72
2018-10-12T00:49:11.939Z,992.67
2018-10-12T00:50:12.165Z,992.67
2018-10-12T00:51:12.392Z,992.67
2018-10-12T00:52:12.630Z,992.74
2018-10-12T00:53:12.858Z,992.69
2018-10-12T00:54:13.074Z,992.67
2018-10-12T00:55:13.304Z,992.70
2018-10-12T00:56:13.533Z,992.68
2018-10-12T00:57:13.764Z,992.69
2018-10-12T00:58:13.989Z,992.70
2018-10-12T00:59:14.223Z,992.71
2018-10-12T01:00:14.448Z,992.70
2018-10-12T01:01:14.676Z,992.69
2018-10-12T01:02:14.904Z,992.70
2018-10-12T01:03:15.131Z,992.70
2018-10-12T01:04:15.361Z,992.74
2018-10-12T01:05:15.590Z,992.74
2018-10-12T01:06:15.814Z,992.71
2018-10-12T01:07:16.045Z,992.74
2018-10-12T01:08:16.273Z,992.71
2018-10-12T01:09:16.491Z,992.68
2018-10-12T01:10:16.718Z,992.67
2018-10-12T01:11:16.953Z,992.64
2018-10-12T01:12:17.244Z,992.66
2018-10-12T01:13:17.403Z,992.66
2018-10-12T01:14:17.627Z,992.69
2018-10-12T01:15:17.855Z,992.71
2018-10-12T01:16:18.080Z,992.73
2018-10-12T01:17:18.308Z,992.75
2018-10-12T01:18:18.536Z,992.72
2018-10-12T01:19:18.765Z,992.69
2018-10-12T01:20:18.989Z,992.67
2018-10-12T01:21:19.219Z,992.69
2018-10-12T01:22:19.449Z,992.69
2018-10-12T01:23:19.670Z,992.68
2018-10-12T01:24:19.898Z,992.70
2018-10-12T01:25:20.126Z,992.76
2018-10-12T01:26:20.401Z,992.81
2018-10-12T01:27:20.582Z,992.82
2018-10-12T01:28:20.810Z,992.76
2018-10-12T01:29:21.035Z,992.78
2018-10-12T01:30:21.311Z,992.72
2018-10-12T01:31:21.537Z,992.72
2018-10-12T01:32:21.764Z,992.73
2018-10-12T01:33:21.992Z,992.71
2018-10-12T01:34:22.220Z,992.67
2018-10-12T01:35:22.449Z,992.71
2018-10-12T01:36:22.679Z,992.75
2018-10-12T01:37:22.908Z,992.78
2018-10-12T01:38:23.134Z,992.76
2018-10-12T01:39:23.358Z,992.70
2018-10-12T01:40:23.585Z,992.70
2018-10-12T01:41:23.808Z,992.70
2018-10-12T01:42:24.042Z,992.67
2018-10-12T01:43:24.262Z,992.72
2018-10-12T01:44:24.484Z,992.80
2018-10-12T01:45:24.718Z,992.77
2018-10-12T01:46:24.942Z,992.76
2018-10-12T01:47:25.170Z,992.75
2018-10-12T01:48:25.397Z,992.85
2018-10-12T01:49:25.626Z,992.86
2018-10-12T01:50:25.854Z,992.87
2018-10-12T01:51:26.073Z,992.89
2018-10-12T01:52:26.299Z,992.87
2018-10-12T01:53:26.526Z,992.83
2018-10-12T01:54:26.756Z,992.85
2018-10-12T01:55:26.982Z,992.92
2018-10-12T01:56:27.208Z,992.91
2018-10-12T01:57:27.435Z,992.87
2018-10-12T01:58:27.664Z,992.88
2018-10-12T01:59:27.893Z,992.91
2018-10-12T02:00:28.121Z,992.94
2018-10-12T02:01:28.346Z,992.95
2018-10-12T02:02:28.573Z,993.02
2018-10-12T02:03:28.801Z,993.00
2018-10-12T02:04:29.028Z,992.95
2018-10-12T02:05:29.258Z,992.99
2018-10-12T02:06:29.482Z,992.96
2018-10-12T02:07:29.712Z,992.99
2018-10-12T02:08:29.939Z,993.04
2018-10-12T02:09:30.167Z,993.03
2018-10-12T02:10:30.396Z,993.04
2018-10-12T02:11:30.627Z,993.07
2018-10-12T02:12:30.849Z,993.07
2018-10-12T02:13:31.076Z,993.11
2018-10-12T02:14:31.307Z,993.15
2018-10-12T02:15:31.528Z,993.11
2018-10-12T02:16:31.758Z,993.09
2018-10-12T02:17:31.983Z,993.10
2018-10-12T02:18:32.214Z,993.12
2018-10-12T02:19:32.437Z,993.13
2018-10-12T02:20:32.664Z,993.16
2018-10-12T02:21:32.895Z,993.16
2018-10-12T02:22:33.124Z,993.18
2018-10-12T02:23:33.348Z,993.15
2018-10-12T02:24:33.576Z,993.19
2018-10-12T02:25:33.806Z,993.18
2018-10-12T02:26:34.030Z,993.21
2018-10-12T02:27:34.256Z,993.23
2018-10-12T02:28:34.487Z,993.20
2018-10-12T02:29:34.713Z,993.21
2018-10-12T02:30:34.941Z,993.19
2018-10-12T02:31:35.168Z,993.16
2018-10-12T02:32:35.394Z,993.15
2018-10-12T02:33:35.630Z,993.18
2018-10-12T02:34:35.854Z,993.20
2018-10-12T02:35:36.087Z,993.21
2018-10-12T02:36:36.310Z,993.19
2018-10-12T02:37:36.540Z,993.16
2018-10-12T02:38:36.762Z,993.21
2018-10-12T02:39:36.990Z,993.21
2018-10-12T02:40:37.218Z,993.24
2018-10-12T02:41:37.451Z,993.27
2018-10-12T02:42:37.681Z,993.24
2018-10-12T02:43:37.903Z,993.25
2018-10-12T02:44:38.132Z,993.26
2018-10-12T02:45:38.358Z,993.27
2018-10-12T02:46:38.588Z,993.23
2018-10-12T02:47:38.815Z,993.26
2018-10-12T02:48:39.043Z,993.27
2018-10-12T02:49:39.272Z,993.29
2018-10-12T02:50:39.498Z,993.27
2018-10-12T02:51:39.730Z,993.27
2018-10-12T02:52:39.954Z,993.28
2018-10-12T02:53:40.182Z,993.31
2018-10-12T02:54:40.409Z,993.31
2018-10-12T02:55:40.632Z,993.31
2018-10-12T02:56:40.863Z,993.26
2018-10-12T02:57:41.092Z,993.32
2018-10-12T02:58:41.322Z,993.33
2018-10-12T02:59:41.548Z,993.39
2018-10-12T03:00:41.781Z,993.44
2018-10-12T03:01:41.998Z,993.44
2018-10-12T03:02:42.227Z,993.45
2018-10-12T03:03:42.455Z,993.45
2018-10-12T03:04:42.689Z,993.46
2018-10-12T03:05:42.914Z,993.47
2018-10-12T03:06:43.143Z,993.53
2018-10-12T03:07:43.364Z,993.47
2018-10-12T03:08:43.592Z,993.51
2018-10-12T03:09:43.825Z,993.47
2018-10-12T03:10:44.055Z,993.50
2018-10-12T03:11:44.281Z,993.57
2018-10-12T03:12:44.507Z,993.64
2018-10-12T03:13:44.738Z,993.69
2018-10-12T03:14:44.957Z,993.74
2018-10-12T03:15:45.184Z,993.72
2018-10-12T03:16:45.412Z,993.68
2018-10-12T03:17:45.638Z,993.71
2018-10-12T03:18:45.865Z,993.67
2018-10-12T03:19:46.092Z,993.67
2018-10-12T03:20:46.318Z,993.68
2018-10-12T03:21:46.544Z,993.72
2018-10-12T03:22:46.772Z,993.73
2018-10-12T03:23:46.998Z,993.75
2018-10-12T03:24:47.227Z,993.73
2018-10-12T03:25:47.454Z,993.73
2018-10-12T03:26:47.685Z,993.71
2018-10-12T03:27:47.911Z,993.70
2018-10-12T03:28:48.141Z,993.70
2018-10-12T03:29:48.371Z,993.73
2018-10-12T03:30:48.593Z,993.77
2018-10-12T03:31:48.825Z,993.70
2018-10-12T03:32:49.053Z,993.70
2018-10-12T03:33:49.278Z,993.72
2018-10-12T03:34:49.506Z,993.74
2018-10-12T03:35:49.733Z,993.77
2018-10-12T03:36:49.957Z,993.76
2018-10-12T03:37:50.186Z,993.79
2018-10-12T03:38:50.414Z,993.79
2018-10-12T03:39:50.640Z,993.79
2018-10-12T03:40:50.868Z,993.78
2018-10-12T03:41:51.100Z,993.79
2018-10-12T03:42:51.325Z,993.79
2018-10-12T03:43:51.558Z,993.81
2018-10-12T03:44:51.789Z,993.78
2018-10-12T03:45:52.009Z,993.78
2018-10-12T03:46:52.236Z,993.79
2018-10-12T03:47:52.462Z,993.79
2018-10-12T03:48:52.688Z,993.84
2018-10-12T03:49:52.904Z,993.88
2018-10-12T03:50:53.137Z,993.90
2018-10-12T03:51:53.360Z,993.92
2018-10-12T03:52:53.594Z,993.92
2018-10-12T03:53:53.796Z,993.90
2018-10-12T03:54:54.030Z,993.91
2018-10-12T03:55:54.240Z,993.86
2018-10-12T03:56:54.475Z,993.91
2018-10-12T03:57:54.693Z,993.95
2018-10-12T03:58:54.917Z,993.95
2018-10-12T03:59:55.140Z,993.93
2018-10-12T04:00:55.365Z,993.94
2018-10-12T04:01:55.591Z,993.93
2018-10-12T04:02:55.927Z,993.96
2018-10-12T04:03:56.044Z,994.00
2018-10-12T04:04:56.275Z,994.01
2018-10-12T04:05:56.504Z,994.07
2018-10-12T04:06:56.734Z,994.10
2018-10-12T04:07:56.964Z,994.09
2018-10-12T04:08:57.194Z,994.15
2018-10-12T04:09:57.422Z,994.20
2018-10-12T04:10:57.647Z,994.18
2018-10-12T04:11:57.875Z,994.23
2018-10-12T04:12:58.100Z,994.23
2018-10-12T04:13:58.328Z,994.22
2018-10-12T04:14:58.552Z,994.22
2018-10-12T04:15:58.775Z,994.26
2018-10-12T04:16:59.003Z,994.23
2018-10-12T04:17:59.232Z,994.29
2018-10-12T04:18:59.454Z,994.28
2018-10-12T04:19:59.687Z,994.27
2018-10-12T04:20:59.915Z,994.34
2018-10-12T04:22:00.148Z,994.36
2018-10-12T04:23:00.370Z,994.39
2018-10-12T04:24:00.600Z,994.40
2018-10-12T04:25:00.827Z,994.39
2018-10-12T04:26:01.052Z,994.40
2018-10-12T04:27:01.280Z,994.41
2018-10-12T04:28:01.508Z,994.40
2018-10-12T04:29:01.736Z,994.43
2018-10-12T04:30:01.963Z,994.44
2018-10-12T04:31:02.194Z,994.43
2018-10-12T04:32:02.416Z,994.44
2018-10-12T04:33:02.644Z,994.45
2018-10-12T04:34:02.883Z,994.43
2018-10-12T04:35:03.097Z,994.42
2018-10-12T04:36:03.324Z,994.43
2018-10-12T04:37:03.550Z,994.44
2018-10-12T04:38:03.777Z,994.43
2018-10-12T04:39:04.004Z,994.46
2018-10-12T04:40:04.241Z,994.44
2018-10-12T04:41:04.462Z,994.41
2018-10-12T04:42:04.695Z,994.42
2018-10-12T04:43:04.914Z,994.45
2018-10-12T04:44:05.139Z,994.46
2018-10-12T04:45:05.370Z,994.52
2018-10-12T04:46:05.594Z,994.50
2018-10-12T04:47:05.826Z,994.50
2018-10-12T04:48:06.049Z,994.48
2018-10-12T04:49:06.278Z,994.51
2018-10-12T04:50:06.499Z,994.56
2018-10-12T04:51:06.723Z,994.60
2018-10-12T04:52:06.955Z,994.59
2018-10-12T04:53:07.170Z,994.57
2018-10-12T04:54:07.401Z,994.53
2018-10-12T04:55:07.624Z,994.48
2018-10-12T04:56:07.856Z,994.51
2018-10-12T04:57:08.079Z,994.59
2018-10-12T04:58:08.317Z,994.69
2018-10-12T04:59:08.528Z,994.63
2018-10-12T05:00:08.759Z,994.59
2018-10-12T05:01:09.052Z,994.62
2018-10-12T05:02:09.209Z,994.64
2018-10-12T05:03:09.473Z,994.66
2018-10-12T05:04:09.678Z,994.66
2018-10-12T05:05:09.898Z,994.67
2018-10-12T05:06:10.097Z,994.63
2018-10-12T05:07:10.326Z,994.66
2018-10-12T05:08:10.554Z,994.65
2018-10-12T05:09:10.785Z,994.64
2018-10-12T05:10:11.010Z,994.69
2018-10-12T05:11:11.233Z,994.62
2018-10-12T05:12:11.461Z,994.63
2018-10-12T05:13:11.687Z,994.63
2018-10-12T05:14:11.912Z,994.67
2018-10-12T05:15:12.140Z,994.71
2018-10-12T05:16:12.366Z,994.73
2018-10-12T05:17:12.593Z,994.72
2018-10-12T05:18:12.821Z,994.75
2018-10-12T05:19:13.048Z,994.75
2018-10-12T05:20:13.274Z,994.77
2018-10-12T05:21:13.499Z,994.79
2018-10-12T05:22:13.776Z,994.80
2018-10-12T05:23:13.957Z,994.78
2018-10-12T05:24:14.189Z,994.81
2018-10-12T05:25:14.409Z,994.81
2018-10-12T05:26:14.635Z,994.87
2018-10-12T05:27:14.862Z,994.87
2018-10-12T05:28:15.089Z,994.96
2018-10-12T05:29:15.316Z,994.97
2018-10-12T05:30:15.635Z,995.02
2018-10-12T05:31:15.770Z,995.04
2018-10-12T05:32:15.996Z,995.02
2018-10-12T05:33:16.224Z,995.02
2018-10-12T05:34:16.451Z,995.10
2018-10-12T05:35:16.679Z,995.13
2018-10-12T05:36:16.910Z,995.19
2018-10-12T05:37:17.141Z,995.22
2018-10-12T05:38:17.359Z,995.20
2018-10-12T05:39:17.588Z,995.22
2018-10-12T05:40:17.816Z,995.23
2018-10-12T05:41:18.041Z,995.21
2018-10-12T05:42:18.267Z,995.25
2018-10-12T05:43:18.641Z,995.20
2018-10-12T05:44:18.721Z,995.22
2018-10-12T05:45:18.945Z,995.17
2018-10-12T05:46:19.172Z,995.17
2018-10-12T05:47:19.403Z,995.17
2018-10-12T05:48:19.635Z,995.17
2018-10-12T05:49:19.861Z,995.21
2018-10-12T05:50:20.089Z,995.25
2018-10-12T05:51:20.314Z,995.29
2018-10-12T05:52:20.542Z,995.27
2018-10-12T05:53:20.770Z,995.29
2018-10-12T05:54:20.996Z,995.30
2018-10-12T05:55:21.224Z,995.30
2018-10-12T05:56:21.451Z,995.32
2018-10-12T05:57:21.680Z,995.35
2018-10-12T05:58:21.906Z,995.35
2018-10-12T05:59:22.137Z,995.41
2018-10-12T06:00:22.358Z,995.45
2018-10-12T06:01:22.665Z,995.43
2018-10-12T06:02:22.814Z,995.45
2018-10-12T06:03:23.041Z,995.48
2018-10-12T06:04:23.268Z,995.46
2018-10-12T06:05:23.495Z,995.50
2018-10-12T06:06:23.723Z,995.48
2018-10-12T06:07:23.955Z,995.48
2018-10-12T06:08:24.177Z,995.42
2018-10-12T06:09:24.415Z,995.47
2018-10-12T06:10:24.636Z,995.44
2018-10-12T06:11:24.898Z,995.47
2018-10-12T06:12:25.093Z,995.46
2018-10-12T06:13:25.316Z,995.47
2018-10-12T06:14:25.545Z,995.44
2018-10-12T06:15:25.800Z,995.50
2018-10-12T06:16:25.989Z,995.50
2018-10-12T06:17:26.223Z,995.56
2018-10-12T06:18:26.451Z,995.56
2018-10-12T06:19:26.685Z,995.61
2018-10-12T06:20:26.907Z,995.58
2018-10-12T06:21:27.171Z,995.61
2018-10-12T06:22:27.355Z,995.64
2018-10-12T06:23:27.585Z,995.64
2018-10-12T06:24:27.809Z,995.66
2018-10-12T06:25:28.036Z,995.68
2018-10-12T06:26:28.266Z,995.67
2018-10-12T06:27:28.494Z,995.69
2018-10-12T06:28:28.721Z,995.75
2018-10-12T06:29:28.950Z,995.76
2018-10-12T06:30:29.182Z,995.81
2018-10-12T06:31:29.405Z,995.79
2018-10-12T06:32:29.630Z,995.79
2018-10-12T06:33:29.856Z,995.77
2018-10-12T06:34:30.081Z,995.77
2018-10-12T06:35:30.309Z,995.76
2018-10-12T06:36:30.538Z,995.79
2018-10-12T06:37:30.763Z,995.80
2018-10-12T06:38:30.991Z,995.81
2018-10-12T06:39:31.218Z,995.80
2018-10-12T06:40:31.446Z,995.79
2018-10-12T06:41:31.891Z,995.85
2018-10-12T06:42:31.900Z,995.84
2018-10-12T06:43:32.134Z,995.87
2018-10-12T06:44:32.359Z,995.91
2018-10-12T06:45:32.584Z,995.90
2018-10-12T06:46:32.872Z,995.96
2018-10-12T06:47:33.039Z,995.96
2018-10-12T06:48:33.271Z,995.96
2018-10-12T06:49:33.495Z,995.94
2018-10-12T06:50:33.727Z,996.00
2018-10-12T06:51:33.944Z,996.01
2018-10-12T06:52:34.172Z,996.01
2018-10-12T06:53:34.406Z,996.00
2018-10-12T06:54:34.626Z,996.00
2018-10-12T06:55:34.854Z,995.99
2018-10-12T06:56:35.088Z,995.99
2018-10-12T06:57:35.307Z,995.98
2018-10-12T06:58:35.536Z,995.98
2018-10-12T06:59:35.765Z,995.94
2018-10-12T07:00:35.991Z,995.91
2018-10-12T07:01:36.218Z,995.93
2018-10-12T07:02:36.446Z,995.94
2018-10-12T07:03:36.676Z,995.93
2018-10-12T07:04:36.900Z,996.00
2018-10-12T07:05:37.239Z,996.09
2018-10-12T07:06:37.357Z,996.18
2018-10-12T07:07:37.584Z,996.25
2018-10-12T07:08:37.816Z,996.20
2018-10-12T07:09:38.039Z,996.18
2018-10-12T07:10:38.265Z,996.17
2018-10-12T07:11:38.494Z,996.26
2018-10-12T07:12:38.721Z,996.34
2018-10-12T07:13:38.978Z,996.40
2018-10-12T07:14:39.178Z,996.42
2018-10-12T07:15:39.406Z,996.47
2018-10-12T07:16:39.632Z,996.48
2018-10-12T07:17:39.859Z,996.54
2018-10-12T07:18:40.087Z,996.60
2018-10-12T07:19:40.366Z,996.60
2018-10-12T07:20:40.539Z,996.57
2018-10-12T07:21:40.767Z,996.55
2018-10-12T07:22:40.994Z,996.57
2018-10-12T07:23:41.219Z,996.53
2018-10-12T07:24:41.450Z,996.54
2018-10-12T07:25:41.676Z,996.56
2018-10-12T07:26:41.905Z,996.61
2018-10-12T07:27:42.133Z,996.60
2018-10-12T07:28:42.362Z,996.61
2018-10-12T07:29:42.595Z,996.61
2018-10-12T07:30:42.824Z,996.61
2018-10-12T07:31:43.044Z,996.64
2018-10-12T07:32:43.271Z,996.61
2018-10-12T07:33:43.491Z,996.61
2018-10-12T07:34:43.720Z,996.64
2018-10-12T07:35:43.946Z,996.65
2018-10-12T07:36:44.175Z,996.70
2018-10-12T07:37:45.267Z,996.68
2018-10-12T07:38:44.622Z,996.74
2018-10-12T07:39:44.857Z,996.77
2018-10-12T07:40:45.079Z,996.83
2018-10-12T07:41:45.310Z,996.79
2018-10-12T07:42:45.537Z,996.81
2018-10-12T07:43:45.765Z,996.84
2018-10-12T07:44:45.996Z,996.89
2018-10-12T07:45:46.229Z,996.86
2018-10-12T07:46:46.456Z,996.81
2018-10-12T07:47:46.688Z,996.80
2018-10-12T07:48:46.918Z,996.81
2018-10-12T07:49:47.147Z,996.82
2018-10-12T07:50:47.363Z,996.82
2018-10-12T07:51:47.591Z,996.89
2018-10-12T07:52:47.822Z,996.91
2018-10-12T07:53:48.046Z,996.93
2018-10-12T07:54:48.280Z,996.96
2018-10-12T07:55:48.506Z,996.93
2018-10-12T07:56:48.732Z,996.99
2018-10-12T07:57:48.960Z,996.96
2018-10-12T07:58:49.189Z,996.98
2018-10-12T07:59:49.418Z,996.99
2018-10-12T08:00:49.850Z,997.07
2018-10-12T08:01:49.871Z,997.04
2018-10-12T08:02:50.102Z,997.05
2018-10-12T08:03:50.331Z,997.02
2018-10-12T08:04:50.558Z,997.05
2018-10-12T08:05:50.789Z,997.08
2018-10-12T08:06:51.062Z,997.02
2018-10-12T08:07:51.242Z,997.04
2018-10-12T08:08:51.470Z,997.12
2018-10-12T08:09:51.699Z,997.13
2018-10-12T08:10:51.930Z,997.16
2018-10-12T08:11:52.154Z,997.16
2018-10-12T08:12:52.382Z,997.16
2018-10-12T08:13:52.704Z,997.18
2018-10-12T08:14:52.837Z,997.15
2018-10-12T08:15:53.063Z,997.18
2018-10-12T08:16:53.292Z,997.17
2018-10-12T08:17:53.526Z,997.21
2018-10-12T08:18:53.759Z,997.24
2018-10-12T08:19:53.988Z,997.25
2018-10-12T08:20:54.217Z,997.25
2018-10-12T08:21:54.446Z,997.26
2018-10-12T08:22:54.674Z,997.35
2018-10-12T08:23:54.905Z,997.35
2018-10-12T08:24:55.132Z,997.39
2018-10-12T08:25:55.363Z,997.39
2018-10-12T08:26:55.601Z,997.42
2018-10-12T08:27:55.824Z,997.42
2018-10-12T08:28:56.051Z,997.43
2018-10-12T08:29:56.281Z,997.46
2018-10-12T08:30:56.506Z,997.47
2018-10-12T08:31:56.734Z,997.47
2018-10-12T08:32:56.987Z,997.46
2018-10-12T08:33:57.196Z,997.49
2018-10-12T08:34:57.425Z,997.48
2018-10-12T08:35:57.649Z,997.46
2018-10-12T08:36:57.879Z,997.44
2018-10-12T08:37:58.108Z,997.41
2018-10-12T08:38:58.344Z,997.39
2018-10-12T08:39:58.569Z,997.42
2018-10-12T08:40:58.797Z,997.39
2018-10-12T08:41:59.051Z,997.40
2018-10-12T08:42:59.259Z,997.46
2018-10-12T08:43:59.483Z,997.45
2018-10-12T08:44:59.717Z,997.49
2018-10-12T08:45:59.946Z,997.50
2018-10-12T08:47:00.181Z,997.50
2018-10-12T08:48:00.407Z,997.50
2018-10-12T08:49:00.638Z,997.54
2018-10-12T08:50:00.864Z,997.59
2018-10-12T08:51:01.111Z,997.58
2018-10-12T08:52:01.327Z,997.62
2018-10-12T08:53:01.562Z,997.65
2018-10-12T08:54:01.786Z,997.67
2018-10-12T08:55:02.013Z,997.66
2018-10-12T08:56:02.244Z,997.70
2018-10-12T08:57:02.472Z,997.67
2018-10-12T08:58:02.702Z,997.68
2018-10-12T08:59:02.933Z,997.74
2018-10-12T09:00:03.166Z,997.72
2018-10-12T09:01:03.394Z,997.73
2018-10-12T09:02:03.616Z,997.73
2018-10-12T09:03:03.904Z,997.74
2018-10-12T09:04:04.077Z,997.73
2018-10-12T09:05:04.307Z,997.71
2018-10-12T09:06:04.538Z,997.71
2018-10-12T09:07:04.766Z,997.69
2018-10-12T09:08:05.000Z,997.64
2018-10-12T09:09:05.232Z,997.62
2018-10-12T09:10:05.456Z,997.61
2018-10-12T09:11:05.686Z,997.59
2018-10-12T09:12:05.920Z,997.59
2018-10-12T09:13:06.143Z,997.56
2018-10-12T09:14:06.375Z,997.55
2018-10-12T09:15:06.606Z,997.54
2018-10-12T09:16:06.870Z,997.52
2018-10-12T09:17:07.063Z,997.52
2018-10-12T09:18:07.292Z,997.53
2018-10-12T09:19:07.514Z,997.53
2018-10-12T09:20:07.790Z,997.50
2018-10-12T09:21:07.978Z,997.49
2018-10-12T09:22:08.205Z,997.51
2018-10-12T09:23:08.433Z,997.50
2018-10-12T09:24:08.666Z,997.53
2018-10-12T09:25:08.897Z,997.51
2018-10-12T09:26:09.132Z,997.52
2018-10-12T09:27:09.383Z,997.53
2018-10-12T09:28:09.589Z,997.45
2018-10-12T09:29:09.823Z,997.46
2018-10-12T09:30:10.092Z,997.46
2018-10-12T09:31:10.281Z,997.44
2018-10-12T09:32:10.505Z,997.44
2018-10-12T09:33:10.737Z,997.43
2018-10-12T09:34:10.967Z,997.41
2018-10-12T09:35:11.200Z,997.44
2018-10-12T09:36:11.432Z,997.50
2018-10-12T09:37:11.660Z,997.51
2018-10-12T09:38:11.891Z,997.54
2018-10-12T09:39:12.116Z,997.49
2018-10-12T09:40:12.345Z,997.47
2018-10-12T09:41:12.572Z,997.43
2018-10-12T09:42:12.803Z,997.46
2018-10-12T09:43:13.090Z,997.46
2018-10-12T09:44:13.265Z,997.46
2018-10-12T09:45:13.495Z,997.45
2018-10-12T09:46:13.727Z,997.43
2018-10-12T09:47:13.955Z,997.42
2018-10-12T09:48:14.180Z,997.40
2018-10-12T09:49:14.408Z,997.45
2018-10-12T09:50:14.660Z,997.40
2018-10-12T09:51:14.868Z,997.41
2018-10-12T09:52:15.102Z,997.44
2018-10-12T09:53:15.332Z,997.45
2018-10-12T09:54:15.564Z,997.45
2018-10-12T09:55:15.795Z,997.48
2018-10-12T09:56:16.029Z,997.50
2018-10-12T09:57:16.261Z,997.49
2018-10-12T09:58:16.496Z,997.48
2018-10-12T09:59:16.720Z,997.48
2018-10-12T10:00:16.948Z,997.45
2018-10-12T10:01:17.185Z,997.41
2018-10-12T10:02:17.529Z,997.42
2018-10-12T10:03:17.646Z,997.39
2018-10-12T10:04:17.871Z,997.37
2018-10-12T10:05:18.104Z,997.40
2018-10-12T10:06:18.331Z,997.41
2018-10-12T10:07:18.564Z,997.43
2018-10-12T10:08:18.947Z,997.42
2018-10-12T10:09:19.023Z,997.46
2018-10-12T10:10:19.256Z,997.46
2018-10-12T10:11:19.487Z,997.42
2018-10-12T10:12:19.719Z,997.42
2018-10-12T10:13:19.955Z,997.40
2018-10-12T10:14:20.181Z,997.38
2018-10-12T10:15:20.477Z,997.44
2018-10-12T10:16:20.657Z,997.40
2018-10-12T10:17:20.876Z,997.39
2018-10-12T10:18:21.110Z,997.40
2018-10-12T10:19:21.395Z,997.37
2018-10-12T10:20:21.567Z,997.45
2018-10-12T10:21:21.800Z,997.38
2018-10-12T10:22:22.064Z,997.36
2018-10-12T10:23:22.261Z,997.36
2018-10-12T10:24:22.495Z,997.37
2018-10-12T10:25:22.730Z,997.33
2018-10-12T10:26:22.963Z,997.36
2018-10-12T10:27:23.193Z,997.40
2018-10-12T10:28:23.421Z,997.39
2018-10-12T10:29:23.762Z,997.42
2018-10-12T10:30:24.038Z,997.48
2018-10-12T10:31:24.113Z,997.47
2018-10-12T10:32:24.354Z,997.49
2018-10-12T10:33:24.575Z,997.47
2018-10-12T10:34:24.809Z,997.47
2018-10-12T10:35:25.043Z,997.50
2018-10-12T10:36:25.272Z,997.47
2018-10-12T10:37:25.505Z,997.47
2018-10-12T10:38:25.733Z,997.48
2018-10-12T10:39:25.960Z,997.50
2018-10-12T10:40:26.189Z,997.47
2018-10-12T10:41:26.425Z,997.47
2018-10-12T10:42:26.659Z,997.48
2018-10-12T10:43:26.886Z,997.49
2018-10-12T10:44:27.119Z,997.47
2018-10-12T10:45:27.351Z,997.49
2018-10-12T10:46:27.699Z,997.46
2018-10-12T10:47:27.816Z,997.46
2018-10-12T10:48:28.051Z,997.43
2018-10-12T10:49:28.283Z,997.46
2018-10-12T10:50:28.515Z,997.43
2018-10-12T10:51:28.745Z,997.45
2018-10-12T10:52:28.976Z,997.44
2018-10-12T10:53:29.215Z,997.46
2018-10-12T10:54:29.441Z,997.46
2018-10-12T10:55:29.672Z,997.46
2018-10-12T10:56:29.905Z,997.47
2018-10-12T10:57:30.139Z,997.45
2018-10-12T10:58:30.370Z,997.46
2018-10-12T10:59:30.602Z,997.48
2018-10-12T11:00:30.839Z,997.44
2018-10-12T11:01:31.074Z,997.40
2018-10-12T11:02:31.298Z,997.40
2018-10-12T11:03:31.527Z,997.40
2018-10-12T11:04:31.758Z,997.39
2018-10-12T11:05:31.988Z,997.37
2018-10-12T11:06:32.218Z,997.42
2018-10-12T11:07:32.451Z,997.38
2018-10-12T11:08:32.686Z,997.38
2018-10-12T11:09:32.916Z,997.39
2018-10-12T11:10:33.152Z,997.37
2018-10-12T11:11:33.386Z,997.38
2018-10-12T11:12:33.654Z,997.40
2018-10-12T11:13:33.849Z,997.35
2018-10-12T11:14:34.086Z,997.34
2018-10-12T11:15:34.335Z,997.33
2018-10-12T11:16:34.544Z,997.34
2018-10-12T11:17:34.780Z,997.33
2018-10-12T11:18:35.011Z,997.37
2018-10-12T11:19:35.295Z,997.31
2018-10-12T11:20:35.472Z,997.32
2018-10-12T11:21:35.702Z,997.33
2018-10-12T11:22:35.933Z,997.30
2018-10-12T11:23:36.162Z,997.32
2018-10-12T11:24:36.476Z,997.32
2018-10-12T11:25:36.626Z,997.32
2018-10-12T11:26:36.911Z,997.30
2018-10-12T11:27:37.094Z,997.32
2018-10-12T11:28:37.326Z,997.30
2018-10-12T11:29:37.556Z,997.30
2018-10-12T11:30:37.791Z,997.27
2018-10-12T11:31:38.028Z,997.28
2018-10-12T11:32:38.313Z,997.27
2018-10-12T11:33:38.496Z,997.22
2018-10-12T11:34:38.728Z,997.19
2018-10-12T11:35:38.953Z,997.22
2018-10-12T11:36:39.185Z,997.22
2018-10-12T11:37:39.420Z,997.19
2018-10-12T11:38:39.649Z,997.15
2018-10-12T11:39:39.882Z,997.17
2018-10-12T11:40:40.109Z,997.13
2018-10-12T11:41:40.339Z,997.07
2018-10-12T11:42:40.613Z,997.06
2018-10-12T11:43:40.799Z,997.02
2018-10-12T11:44:41.032Z,997.09
2018-10-12T11:45:41.262Z,997.08
2018-10-12T11:46:41.497Z,997.09
2018-10-12T11:47:41.720Z,997.13
2018-10-12T11:48:41.954Z,997.12
2018-10-12T11:49:42.181Z,997.15
2018-10-12T11:50:42.421Z,997.13
2018-10-12T11:51:42.654Z,997.11
2018-10-12T11:52:42.911Z,997.11
2018-10-12T11:53:43.129Z,997.14
2018-10-12T11:54:43.347Z,997.07
2018-10-12T11:55:43.576Z,997.07
2018-10-12T11:56:43.808Z,997.08
2018-10-12T11:57:44.037Z,997.06
2018-10-12T11:58:44.266Z,997.05
2018-10-12T11:59:44.503Z,997.06
2018-10-12T12:00:44.791Z,997.06
2018-10-12T12:01:44.969Z,997.05
2018-10-12T12:02:45.202Z,997.05
2018-10-12T12:03:45.436Z,997.01
2018-10-12T12:04:45.669Z,996.99
2018-10-12T12:05:45.906Z,997.00
2018-10-12T12:06:46.149Z,996.98
2018-10-12T12:07:46.369Z,996.97
2018-10-12T12:08:46.603Z,996.93
2018-10-12T12:09:46.834Z,996.97
2018-10-12T12:10:47.068Z,996.93
2018-10-12T12:11:47.298Z,996.90
2018-10-12T12:12:47.538Z,996.90
2018-10-12T12:13:47.904Z,996.91
2018-10-12T12:14:47.994Z,996.86
2018-10-12T12:15:48.229Z,996.89
2018-10-12T12:16:48.484Z,996.86
2018-10-12T12:17:48.700Z,996.89
2018-10-12T12:18:48.922Z,996.88
2018-10-12T12:19:49.163Z,996.90
2018-10-12T12:20:49.389Z,996.91
2018-10-12T12:21:49.618Z,996.92
2018-10-12T12:22:49.846Z,996.86
2018-10-12T12:23:50.081Z,996.87
2018-10-12T12:24:50.316Z,996.88
2018-10-12T12:25:50.553Z,996.86
2018-10-12T12:26:50.782Z,996.92
2018-10-12T12:27:51.016Z,996.88
2018-10-12T12:28:51.252Z,996.87
2018-10-12T12:29:51.482Z,996.87
2018-10-12T12:30:51.716Z,996.87